Terminal Aerodrome Forecast
Issued by NWS Buffalo, NY

Home | Current Version | Previous Version | Text Only | Print | Product List | Glossary On
Versions: 1 2 3 4 5 6 7 8 9 10 11 12 13 14 15 16 17 18 19 20 21 22 23 24 25
000
FTUS41 KBUF 040540
TAFROC
TAF
KROC 040540Z 0406/0506 24005KT P6SM FEW050 SCT100
     FM041100 24006KT P6SM BKN070
     FM041800 28010KT P6SM VCSH BKN060
     FM050300 24006KT P6SM VCSH BKN080=

USA.gov is the U.S. government's official web portal to all federal, state and local government web resources and services.